Time;durP1;ratioP1;P1;durP2;ratioP2;P2;SDS_P1;SDS_P2;PMS_P1;PMS_P2;Temp;Humidity;BMP_temperature;BMP_pressure;BME280_temperature;BME280_humidity;BME280_pressure;Samples;Min_cycle;Max_cycle;Signal;HPM_P1;HPM_P2
2023/04/17 00:00:24;;;;;;;37.53;26.48;;;;;;;;;;4991172;28;20213;-66
2023/04/17 00:02:49;;;;;;;40.05;27.27;;;;;;;;;;4991227;28;20209;-67
2023/04/17 00:05:15;;;;;;;36.35;26.33;;;;;;;;;;4985105;28;20296;-66
2023/04/17 00:07:40;;;;;;;34.35;25.40;;;;;;;;;;4986976;28;20672;-67
2023/04/17 00:10:07;;;;;;;37.75;26.70;;;;;;;;;;5006969;28;20224;-65
2023/04/17 00:12:32;;;;;;;38.85;26.73;;;;;;;;;;4990093;28;20217;-66
2023/04/17 00:14:58;;;;;;;38.33;25.42;;;;;;;;;;4991130;28;20222;-66
2023/04/17 00:17:23;;;;;;;39.00;24.85;;;;;;;;;;4994061;28;20251;-66
2023/04/17 00:19:49;;;;;;;37.90;26.23;;;;;;;;;;4994151;28;20409;-66
2023/04/17 00:22:14;;;;;;;37.65;24.73;;;;;;;;;;4992164;28;20205;-66
2023/04/17 00:24:39;;;;;;;36.63;24.38;;;;;;;;;;4991630;28;20237;-67
2023/04/17 00:27:05;;;;;;;37.13;24.52;;;;;;;;;;4985381;28;20205;-66
2023/04/17 00:29:31;;;;;;;35.58;24.70;;;;;;;;;;4987075;28;20232;-66
2023/04/17 00:31:57;;;;;;;33.03;25.00;;;;;;;;;;4987279;28;20238;-66
2023/04/17 00:34:22;;;;;;;41.50;25.88;;;;;;;;;;4987663;28;20209;-66
2023/04/17 00:36:47;;;;;;;36.42;26.38;;;;;;;;;;4990849;28;20228;-66
2023/04/17 00:39:12;;;;;;;37.83;25.48;;;;;;;;;;4991645;28;20735;-66
2023/04/17 00:41:37;;;;;;;40.25;25.95;;;;;;;;;;4993385;28;20320;-66
2023/04/17 00:44:03;;;;;;;36.85;26.25;;;;;;;;;;4993330;28;20209;-66
2023/04/17 00:46:29;;;;;;;41.58;28.15;;;;;;;;;;4991036;28;20245;-66
2023/04/17 00:48:54;;;;;;;34.90;25.15;;;;;;;;;;4995541;28;20224;-66
2023/04/17 00:51:19;;;;;;;35.50;25.45;;;;;;;;;;5009157;28;20211;-66
2023/04/17 00:53:45;;;;;;;35.72;25.25;;;;;;;;;;4994435;28;20229;-66
2023/04/17 00:56:10;;;;;;;39.67;25.52;;;;;;;;;;4985765;28;20657;-66
2023/04/17 00:58:36;;;;;;;37.35;24.33;;;;;;;;;;4993947;28;20697;-66
2023/04/17 01:01:02;;;;;;;33.50;24.63;;;;;;;;;;5018329;28;20214;-65
2023/04/17 01:03:28;;;;;;;34.67;24.27;;;;;;;;;;5012104;28;20200;-66
2023/04/17 01:05:53;;;;;;;36.58;26.20;;;;;;;;;;4998383;28;20220;-66
2023/04/17 01:08:19;;;;;;;37.83;26.80;;;;;;;;;;5015267;28;20216;-66
2023/04/17 01:10:44;;;;;;;34.58;24.95;;;;;;;;;;5008940;28;20224;-67
2023/04/17 01:13:09;;;;;;;35.47;25.42;;;;;;;;;;5003269;28;20212;-66
2023/04/17 01:15:35;;;;;;;36.13;25.45;;;;;;;;;;5004747;28;20311;-66
2023/04/17 01:18:00;;;;;;;34.42;24.25;;;;;;;;;;5004481;28;20220;-67
2023/04/17 01:20:28;;;;;;;35.67;23.95;;;;;;;;;;5012476;28;20220;-66
2023/04/17 01:22:54;;;;;;;32.97;24.00;;;;;;;;;;5017773;28;20211;-66
2023/04/17 01:25:19;;;;;;;33.00;23.77;;;;;;;;;;4990773;28;20774;-66
2023/04/17 01:27:45;;;;;;;34.47;24.05;;;;;;;;;;4990013;28;20217;-66
2023/04/17 01:30:10;;;;;;;36.53;24.88;;;;;;;;;;4990108;28;20320;-66
2023/04/17 01:32:35;;;;;;;35.50;25.38;;;;;;;;;;4993614;28;20251;-66
2023/04/17 01:35:01;;;;;;;37.60;25.98;;;;;;;;;;4987540;28;20212;-66
2023/04/17 01:37:26;;;;;;;37.35;26.42;;;;;;;;;;4981749;28;20299;-66
2023/04/17 01:39:51;;;;;;;37.15;25.48;;;;;;;;;;4982123;28;20236;-66
2023/04/17 01:42:17;;;;;;;35.35;24.73;;;;;;;;;;5012966;28;20290;-66
2023/04/17 01:44:42;;;;;;;36.03;25.67;;;;;;;;;;5008469;28;20620;-66
2023/04/17 01:47:07;;;;;;;37.10;26.58;;;;;;;;;;5006838;28;20205;-66
2023/04/17 01:49:32;;;;;;;31.85;24.27;;;;;;;;;;4993031;28;20743;-66
2023/04/17 01:51:58;;;;;;;35.97;24.65;;;;;;;;;;4997842;28;20220;-66
2023/04/17 01:54:23;;;;;;;39.83;27.00;;;;;;;;;;4977887;28;20233;-66
2023/04/17 01:56:49;;;;;;;35.90;25.02;;;;;;;;;;4965417;28;20218;-66
2023/04/17 01:59:14;;;;;;;36.05;26.27;;;;;;;;;;4960817;28;21307;-66
2023/04/17 02:01:40;;;;;;;37.85;26.10;;;;;;;;;;4958505;28;20725;-66
2023/04/17 02:04:05;;;;;;;37.00;26.70;;;;;;;;;;4954512;28;20575;-66
2023/04/17 02:06:31;;;;;;;36.90;25.48;;;;;;;;;;4954555;28;20247;-66
2023/04/17 02:08:56;;;;;;;39.38;25.20;;;;;;;;;;4957635;28;20233;-66
2023/04/17 02:11:22;;;;;;;39.75;26.75;;;;;;;;;;4960570;28;20240;-66
2023/04/17 02:13:47;;;;;;;39.60;27.33;;;;;;;;;;4961909;28;20460;-66
2023/04/17 02:16:12;;;;;;;38.15;27.50;;;;;;;;;;4961194;28;20214;-66
2023/04/17 02:18:38;;;;;;;40.38;28.20;;;;;;;;;;4961385;28;20236;-67
2023/04/17 02:21:03;;;;;;;41.03;28.73;;;;;;;;;;4961378;28;20218;-66
2023/04/17 02:23:29;;;;;;;40.08;27.95;;;;;;;;;;4961085;28;20635;-66
2023/04/17 02:25:54;;;;;;;38.92;26.92;;;;;;;;;;4953951;28;20245;-66
2023/04/17 02:28:19;;;;;;;41.28;27.50;;;;;;;;;;4955645;28;20304;-66
2023/04/17 02:30:44;;;;;;;43.00;28.00;;;;;;;;;;4958360;28;20684;-66
2023/04/17 02:33:10;;;;;;;43.10;28.20;;;;;;;;;;4964874;28;20224;-66
2023/04/17 02:35:35;;;;;;;41.95;28.15;;;;;;;;;;4965416;28;20272;-66
2023/04/17 02:38:00;;;;;;;42.20;27.60;;;;;;;;;;4963631;28;20732;-62
2023/04/17 02:40:26;;;;;;;42.17;29.40;;;;;;;;;;4964639;28;20241;-66
2023/04/17 02:42:51;;;;;;;40.28;28.45;;;;;;;;;;4965241;28;20677;-66
2023/04/17 02:45:16;;;;;;;47.55;30.05;;;;;;;;;;4964999;28;20232;-66
2023/04/17 02:47:41;;;;;;;44.42;27.88;;;;;;;;;;4959681;28;20218;-66
2023/04/17 02:50:08;;;;;;;41.05;27.10;;;;;;;;;;4957223;28;20240;-66
2023/04/17 02:52:33;;;;;;;43.42;28.77;;;;;;;;;;4960364;28;20217;-66
2023/04/17 02:54:58;;;;;;;38.90;27.58;;;;;;;;;;5013366;28;20244;-66
2023/04/17 02:57:24;;;;;;;42.42;27.33;;;;;;;;;;4985109;28;20209;-66
2023/04/17 02:59:49;;;;;;;41.67;28.33;;;;;;;;;;5033745;28;20212;-66
2023/04/17 03:02:15;;;;;;;42.80;27.75;;;;;;;;;;5012339;28;20212;-66
2023/04/17 03:04:41;;;;;;;42.72;27.70;;;;;;;;;;5022411;28;20234;-66
2023/04/17 03:07:08;;;;;;;41.05;26.75;;;;;;;;;;5032672;28;20212;-65
2023/04/17 03:09:33;;;;;;;38.15;25.55;;;;;;;;;;5031596;28;20231;-66
2023/04/17 03:11:59;;;;;;;39.83;27.70;;;;;;;;;;5013585;28;20212;-66
2023/04/17 03:14:24;;;;;;;39.65;26.40;;;;;;;;;;5013032;28;20227;-67
2023/04/17 03:16:49;;;;;;;41.15;28.02;;;;;;;;;;5012892;28;20227;-66
2023/04/17 03:19:15;;;;;;;41.28;27.80;;;;;;;;;;5012927;28;20267;-66
2023/04/17 03:21:40;;;;;;;43.20;27.45;;;;;;;;;;5011275;28;20617;-67
2023/04/17 03:24:05;;;;;;;42.00;27.30;;;;;;;;;;5011413;28;20208;-65
2023/04/17 03:26:31;;;;;;;40.60;27.77;;;;;;;;;;5011720;28;20660;-66
2023/04/17 03:28:56;;;;;;;41.55;28.05;;;;;;;;;;5012399;28;20212;-66
2023/04/17 03:31:22;;;;;;;40.70;27.50;;;;;;;;;;5006177;28;20259;-67
2023/04/17 03:33:48;;;;;;;40.92;27.15;;;;;;;;;;5003737;28;20274;-66
2023/04/17 03:36:13;;;;;;;42.35;28.35;;;;;;;;;;5021298;28;20220;-67
2023/04/17 03:38:38;;;;;;;41.08;28.30;;;;;;;;;;5022642;28;20214;-66
2023/04/17 03:41:04;;;;;;;38.10;27.23;;;;;;;;;;5021009;28;20207;-66
2023/04/17 03:43:29;;;;;;;37.30;25.05;;;;;;;;;;5014331;28;20594;-66
2023/04/17 03:45:54;;;;;;;38.00;26.50;;;;;;;;;;5015358;28;20679;-66
2023/04/17 03:48:19;;;;;;;40.55;27.52;;;;;;;;;;5002951;28;20289;-66
2023/04/17 03:50:45;;;;;;;41.58;28.05;;;;;;;;;;5002265;28;20232;-67
2023/04/17 03:53:10;;;;;;;43.00;28.17;;;;;;;;;;5002848;28;20715;-66
2023/04/17 03:55:35;;;;;;;37.92;24.77;;;;;;;;;;5002980;28;20619;-66
2023/04/17 03:58:00;;;;;;;40.28;27.23;;;;;;;;;;5001901;28;20216;-66
2023/04/17 04:00:26;;;;;;;40.67;27.17;;;;;;;;;;5003099;28;20216;-66
2023/04/17 04:02:51;;;;;;;40.25;27.35;;;;;;;;;;5003421;28;20220;-66
2023/04/17 04:05:16;;;;;;;40.88;27.67;;;;;;;;;;4997921;28;20228;-66
2023/04/17 04:07:42;;;;;;;42.88;28.48;;;;;;;;;;4995730;28;20652;-66
2023/04/17 04:10:07;;;;;;;48.30;30.90;;;;;;;;;;4994296;28;20224;-66
2023/04/17 04:12:33;;;;;;;50.70;31.67;;;;;;;;;;4999473;28;20220;-67
2023/04/17 04:14:58;;;;;;;50.42;31.05;;;;;;;;;;5003162;28;20208;-67
2023/04/17 04:17:23;;;;;;;48.53;30.70;;;;;;;;;;5002059;28;20215;-67
2023/04/17 04:19:48;;;;;;;50.78;31.60;;;;;;;;;;5002352;28;20216;-66
2023/04/17 04:22:14;;;;;;;42.65;28.70;;;;;;;;;;5001948;28;20303;-67
2023/04/17 04:24:39;;;;;;;50.75;31.55;;;;;;;;;;5002307;28;20231;-66
2023/04/17 04:27:05;;;;;;;46.60;30.23;;;;;;;;;;4998772;28;20713;-66
2023/04/17 04:29:30;;;;;;;44.67;28.85;;;;;;;;;;4995630;28;20848;-66
2023/04/17 04:31:56;;;;;;;45.20;29.15;;;;;;;;;;4994242;28;20501;-65
2023/04/17 04:34:24;;;;;;;53.33;30.73;;;;;;;;;;4996944;28;20208;-65
2023/04/17 04:36:50;;;;;;;44.07;28.87;;;;;;;;;;5002388;28;20313;-67
2023/04/17 04:39:19;;;;;;;52.97;32.72;;;;;;;;;;5019858;28;20766;-66
2023/04/17 04:41:45;;;;;;;54.85;33.42;;;;;;;;;;5021657;28;20219;-66
2023/04/17 04:44:10;;;;;;;55.33;33.25;;;;;;;;;;5021409;28;20220;-65
2023/04/17 04:46:35;;;;;;;49.40;30.90;;;;;;;;;;5020792;28;20212;-66
2023/04/17 04:49:00;;;;;;;54.00;32.00;;;;;;;;;;5002796;28;20707;-65
2023/04/17 04:51:26;;;;;;;54.00;32.40;;;;;;;;;;4994778;28;20200;-66
2023/04/17 04:53:51;;;;;;;51.40;32.33;;;;;;;;;;4993887;28;20236;-66
2023/04/17 04:56:16;;;;;;;51.22;31.65;;;;;;;;;;4994406;28;20293;-66
2023/04/17 04:58:42;;;;;;;55.22;33.53;;;;;;;;;;5001737;28;20223;-67
2023/04/17 05:01:07;;;;;;;60.92;35.13;;;;;;;;;;5001020;28;20695;-66
2023/04/17 05:03:32;;;;;;;59.95;33.63;;;;;;;;;;5001988;28;20216;-67
2023/04/17 05:05:57;;;;;;;56.13;32.30;;;;;;;;;;5028890;28;20616;-67
2023/04/17 05:08:23;;;;;;;60.45;34.50;;;;;;;;;;5029062;28;20299;-66
2023/04/17 05:10:48;;;;;;;51.35;31.85;;;;;;;;;;5019566;28;20220;-65
2023/04/17 05:13:13;;;;;;;54.15;32.30;;;;;;;;;;5010807;28;20215;-65
2023/04/17 05:15:40;;;;;;;58.17;38.37;;;;;;;;;;5009337;28;20693;-64
2023/04/17 05:18:05;;;;;;;62.05;35.95;;;;;;;;;;5010724;28;20221;-66
2023/04/17 05:20:30;;;;;;;68.40;40.70;;;;;;;;;;5017686;28;20494;-64
2023/04/17 05:22:56;;;;;;;60.35;34.58;;;;;;;;;;5029287;28;20698;-64
2023/04/17 05:25:21;;;;;;;63.90;35.80;;;;;;;;;;5029502;28;20219;-65
2023/04/17 05:27:47;;;;;;;61.45;35.20;;;;;;;;;;5029718;28;20277;-64
2023/04/17 05:30:12;;;;;;;67.35;36.88;;;;;;;;;;5027924;28;20232;-64
2023/04/17 05:32:37;;;;;;;64.97;37.15;;;;;;;;;;5029350;28;20230;-64
2023/04/17 05:35:04;;;;;;;67.80;37.05;;;;;;;;;;5028032;28;20207;-64
2023/04/17 05:37:29;;;;;;;63.95;37.03;;;;;;;;;;5019750;28;20208;-64
2023/04/17 05:39:54;;;;;;;60.92;34.78;;;;;;;;;;5029785;28;20206;-65
2023/04/17 05:42:20;;;;;;;76.15;39.05;;;;;;;;;;5028732;28;20584;-64
2023/04/17 05:44:45;;;;;;;67.25;37.42;;;;;;;;;;5029819;28;20204;-64
2023/04/17 05:47:10;;;;;;;65.43;37.40;;;;;;;;;;5029521;28;20671;-63
2023/04/17 05:49:35;;;;;;;72.13;37.70;;;;;;;;;;5028927;28;20670;-64
2023/04/17 05:52:01;;;;;;;66.70;37.70;;;;;;;;;;5029504;28;20269;-63
2023/04/17 05:54:29;;;;;;;76.43;39.30;;;;;;;;;;5018720;28;20407;-65
2023/04/17 05:56:55;;;;;;;66.65;37.63;;;;;;;;;;5014935;28;20212;-64
2023/04/17 05:59:20;;;;;;;70.95;37.72;;;;;;;;;;5019364;28;20222;-66
2023/04/17 06:01:46;;;;;;;79.20;43.57;;;;;;;;;;5010182;28;20423;-67
2023/04/17 06:04:11;;;;;;;58.65;34.78;;;;;;;;;;5008620;28;20740;-65
2023/04/17 06:06:37;;;;;;;62.90;36.15;;;;;;;;;;5010128;28;20224;-66
2023/04/17 06:09:04;;;;;;;63.97;37.00;;;;;;;;;;5003597;28;20212;-65
2023/04/17 06:11:29;;;;;;;60.88;36.80;;;;;;;;;;5009076;28;20212;-65
2023/04/17 06:13:55;;;;;;;72.97;38.75;;;;;;;;;;5010258;28;20257;-66
2023/04/17 06:16:20;;;;;;;56.90;34.40;;;;;;;;;;5009641;28;20299;-65
2023/04/17 06:18:45;;;;;;;59.65;34.85;;;;;;;;;;5009480;28;20213;-65
2023/04/17 06:21:11;;;;;;;64.45;37.05;;;;;;;;;;5009777;28;20630;-65
2023/04/17 06:23:36;;;;;;;60.47;36.70;;;;;;;;;;5008693;28;20304;-65
2023/04/17 06:26:01;;;;;;;66.07;37.58;;;;;;;;;;5008972;28;20705;-65
2023/04/17 06:28:27;;;;;;;61.93;36.50;;;;;;;;;;5009926;28;20204;-65
2023/04/17 06:30:52;;;;;;;59.75;35.28;;;;;;;;;;5010095;28;20220;-65
2023/04/17 06:33:17;;;;;;;65.82;38.42;;;;;;;;;;4995245;28;20201;-65
2023/04/17 06:35:42;;;;;;;65.70;37.40;;;;;;;;;;5017183;28;20696;-66
2023/04/17 06:38:08;;;;;;;66.53;39.75;;;;;;;;;;5021747;28;20212;-65
2023/04/17 06:40:33;;;;;;;67.22;38.35;;;;;;;;;;5009424;28;20229;-66
2023/04/17 06:42:58;;;;;;;54.88;33.97;;;;;;;;;;5009934;28;20629;-64
2023/04/17 06:45:24;;;;;;;66.53;37.92;;;;;;;;;;5009607;28;20216;-64
2023/04/17 06:47:49;;;;;;;62.58;35.58;;;;;;;;;;5009271;28;20579;-64
2023/04/17 06:50:15;;;;;;;60.67;37.00;;;;;;;;;;5009564;28;20916;-64
2023/04/17 06:52:41;;;;;;;57.65;37.13;;;;;;;;;;5010745;28;20220;-64
2023/04/17 06:55:06;;;;;;;58.13;36.03;;;;;;;;;;5029200;28;20233;-63
2023/04/17 06:57:32;;;;;;;62.38;36.80;;;;;;;;;;5029775;28;20500;-66
2023/04/17 06:59:58;;;;;;;63.03;38.08;;;;;;;;;;5029148;28;20314;-64
2023/04/17 07:02:23;;;;;;;60.38;38.67;;;;;;;;;;5028934;28;20286;-63
2023/04/17 07:04:48;;;;;;;56.15;35.30;;;;;;;;;;5029624;28;20215;-63
2023/04/17 07:07:14;;;;;;;58.97;36.72;;;;;;;;;;5028292;28;20212;-63
2023/04/17 07:09:41;;;;;;;59.38;36.80;;;;;;;;;;5029501;28;20231;-63
2023/04/17 07:12:07;;;;;;;67.00;43.75;;;;;;;;;;5029122;28;20211;-63
2023/04/17 07:14:32;;;;;;;59.83;37.63;;;;;;;;;;5029171;28;20214;-63
2023/04/17 07:16:57;;;;;;;61.55;37.45;;;;;;;;;;5033089;28;20203;-63
2023/04/17 07:19:23;;;;;;;61.30;38.72;;;;;;;;;;5032094;28;20219;-64
2023/04/17 07:21:48;;;;;;;62.38;38.20;;;;;;;;;;5013693;28;20204;-64
2023/04/17 07:24:13;;;;;;;60.55;38.10;;;;;;;;;;5024833;28;20230;-63
2023/04/17 07:26:39;;;;;;;58.72;37.97;;;;;;;;;;5031907;28;20307;-64
2023/04/17 07:29:04;;;;;;;58.25;39.03;;;;;;;;;;5024984;28;20577;-64
2023/04/17 07:31:30;;;;;;;61.53;37.10;;;;;;;;;;5025914;28;20574;-64
2023/04/17 07:33:55;;;;;;;58.00;37.70;;;;;;;;;;5021044;28;20215;-64
2023/04/17 07:36:20;;;;;;;59.30;37.33;;;;;;;;;;5027595;28;20663;-63
2023/04/17 07:38:46;;;;;;;65.85;42.47;;;;;;;;;;5031111;28;20667;-64
2023/04/17 07:41:11;;;;;;;59.95;37.25;;;;;;;;;;5030852;28;20290;-64
2023/04/17 07:43:37;;;;;;;64.03;39.10;;;;;;;;;;5030404;28;20266;-64
2023/04/17 07:46:02;;;;;;;64.30;40.20;;;;;;;;;;5030651;28;20250;-64
2023/04/17 07:48:28;;;;;;;61.75;38.38;;;;;;;;;;5031132;28;20207;-63
2023/04/17 07:50:53;;;;;;;66.05;40.80;;;;;;;;;;5030239;28;20219;-64
2023/04/17 07:53:19;;;;;;;58.28;37.75;;;;;;;;;;5029125;28;20236;-64
2023/04/17 07:55:44;;;;;;;62.83;40.20;;;;;;;;;;5031086;28;20204;-64
2023/04/17 07:58:10;;;;;;;58.00;37.30;;;;;;;;;;5030275;28;20212;-65
2023/04/17 08:00:37;;;;;;;60.03;38.22;;;;;;;;;;5032671;28;20725;-64
2023/04/17 08:03:02;;;;;;;56.92;36.83;;;;;;;;;;5029572;28;20208;-63
2023/04/17 08:05:27;;;;;;;55.65;37.53;;;;;;;;;;5033415;28;20295;-63
2023/04/17 08:07:53;;;;;;;55.53;37.25;;;;;;;;;;5026207;28;20578;-63
2023/04/17 08:10:18;;;;;;;54.47;37.92;;;;;;;;;;5030684;28;20232;-63
2023/04/17 08:12:43;;;;;;;60.08;38.45;;;;;;;;;;5021274;28;20243;-63
2023/04/17 08:15:09;;;;;;;61.35;40.47;;;;;;;;;;5030718;28;20655;-63
2023/04/17 08:17:34;;;;;;;60.33;38.75;;;;;;;;;;5031319;28;20576;-63
2023/04/17 08:20:01;;;;;;;60.15;39.28;;;;;;;;;;5032186;28;20219;-63
2023/04/17 08:22:27;;;;;;;59.72;38.10;;;;;;;;;;5031046;28;20552;-64
2023/04/17 08:24:56;;;;;;;59.25;39.53;;;;;;;;;;5030049;28;20216;-63
2023/04/17 08:27:21;;;;;;;57.90;40.05;;;;;;;;;;5030225;28;20290;-63
2023/04/17 08:29:46;;;;;;;53.80;37.10;;;;;;;;;;5031596;28;20247;-64
2023/04/17 08:32:11;;;;;;;55.13;38.05;;;;;;;;;;5030692;28;20269;-64
2023/04/17 08:34:37;;;;;;;51.30;36.10;;;;;;;;;;5031660;28;20578;-64
2023/04/17 08:37:03;;;;;;;55.63;38.35;;;;;;;;;;5011136;28;20208;-64
2023/04/17 08:39:29;;;;;;;53.67;36.13;;;;;;;;;;5010831;28;20698;-64
2023/04/17 08:41:56;;;;;;;54.78;37.15;;;;;;;;;;5019451;28;20303;-64
2023/04/17 08:44:22;;;;;;;48.90;35.40;;;;;;;;;;5030797;28;20208;-64
2023/04/17 08:46:47;;;;;;;47.50;35.53;;;;;;;;;;5030774;28;20550;-64
2023/04/17 08:49:13;;;;;;;52.05;36.40;;;;;;;;;;5031013;28;20215;-64
2023/04/17 08:51:39;;;;;;;48.55;34.35;;;;;;;;;;5031060;28;20262;-64
2023/04/17 08:54:05;;;;;;;47.80;34.63;;;;;;;;;;5018857;28;20712;-64
2023/04/17 08:56:30;;;;;;;47.90;34.80;;;;;;;;;;5011456;28;20212;-65
2023/04/17 08:58:55;;;;;;;51.33;34.75;;;;;;;;;;5011268;28;20212;-65
2023/04/17 09:01:21;;;;;;;49.13;34.17;;;;;;;;;;5009857;28;20303;-64
2023/04/17 09:03:46;;;;;;;51.30;34.83;;;;;;;;;;5010701;28;20256;-65
2023/04/17 09:06:12;;;;;;;48.45;34.20;;;;;;;;;;5010636;28;20664;-64
2023/04/17 09:08:37;;;;;;;48.05;33.00;;;;;;;;;;5010436;28;20699;-64
2023/04/17 09:11:03;;;;;;;54.28;35.30;;;;;;;;;;5010771;28;20295;-64
2023/04/17 09:13:29;;;;;;;50.13;36.50;;;;;;;;;;5010290;28;20608;-65
2023/04/17 09:16:04;;;;;;;45.60;33.90;;;;;;;;;;5017470;28;20748;-64
2023/04/17 09:18:30;;;;;;;49.60;35.42;;;;;;;;;;5012660;28;20230;-64
2023/04/17 09:20:57;;;;;;;45.38;34.42;;;;;;;;;;5010137;28;20660;-64
2023/04/17 09:23:23;;;;;;;48.92;35.28;;;;;;;;;;5007009;28;20212;-64
2023/04/17 09:26:04;;;;;;;48.03;35.15;;;;;;;;;;4993426;28;20572;-64
2023/04/17 09:28:34;;;;;;;47.47;34.03;;;;;;;;;;5009798;28;20236;-64
2023/04/17 09:31:04;;;;;;;45.20;34.50;;;;;;;;;;5010734;28;20252;-64
2023/04/17 09:33:30;;;;;;;44.05;32.60;;;;;;;;;;5010323;28;20210;-64
2023/04/17 09:35:55;;;;;;;40.15;30.60;;;;;;;;;;5010095;28;20649;-64
2023/04/17 09:38:35;;;;;;;42.35;30.30;;;;;;;;;;5007910;28;20257;-63
2023/04/17 09:41:00;;;;;;;41.90;33.70;;;;;;;;;;5009466;28;20481;-63
2023/04/17 09:43:25;;;;;;;39.70;28.60;;;;;;;;;;5009266;28;20216;-64
2023/04/17 09:45:51;;;;;;;38.92;28.80;;;;;;;;;;4992518;28;20219;-64
2023/04/17 09:48:16;;;;;;;34.70;26.48;;;;;;;;;;5010249;28;20303;-65
2023/04/17 09:50:41;;;;;;;39.45;27.27;;;;;;;;;;5009918;28;20233;-66
2023/04/17 09:53:07;;;;;;;35.55;27.45;;;;;;;;;;5015093;28;20576;-64
2023/04/17 09:55:32;;;;;;;35.97;26.75;;;;;;;;;;5029495;28;20204;-64
2023/04/17 09:58:00;;;;;;;36.90;26.75;;;;;;;;;;5030508;28;20528;-65
2023/04/17 10:00:26;;;;;;;38.13;27.23;;;;;;;;;;5029752;28;20215;-65
2023/04/17 10:02:52;;;;;;;34.60;25.60;;;;;;;;;;5029327;28;20223;-65
2023/04/17 10:05:17;;;;;;;31.83;24.33;;;;;;;;;;5029813;28;20216;-65
2023/04/17 10:07:43;;;;;;;34.13;24.38;;;;;;;;;;5029976;28;20218;-65
2023/04/17 10:10:09;;;;;;;35.13;25.63;;;;;;;;;;5028633;28;20238;-65
2023/04/17 10:12:35;;;;;;;36.15;24.17;;;;;;;;;;5029999;28;20555;-65
2023/04/17 10:15:01;;;;;;;31.50;23.13;;;;;;;;;;5028341;28;20222;-64
2023/04/17 10:17:30;;;;;;;30.85;23.20;;;;;;;;;;5029141;28;20299;-65
2023/04/17 10:19:55;;;;;;;29.40;21.20;;;;;;;;;;5028763;28;20232;-65
2023/04/17 10:22:20;;;;;;;27.08;20.10;;;;;;;;;;5029360;28;20243;-65
2023/04/17 10:24:47;;;;;;;34.70;22.17;;;;;;;;;;5028971;28;20212;-66
2023/04/17 10:27:23;;;;;;;32.70;23.17;;;;;;;;;;5029596;28;20208;-65
2023/04/17 10:29:55;;;;;;;34.05;22.90;;;;;;;;;;5030062;28;20219;-65
2023/04/17 10:32:25;;;;;;;32.70;23.65;;;;;;;;;;5028575;28;20221;-65
2023/04/17 10:34:52;;;;;;;31.55;23.17;;;;;;;;;;5030229;28;20223;-66
2023/04/17 10:37:17;;;;;;;31.55;23.10;;;;;;;;;;5026238;28;20257;-65
2023/04/17 10:39:50;;;;;;;31.27;24.17;;;;;;;;;;5021509;28;20301;-65
2023/04/17 10:42:20;;;;;;;29.08;23.30;;;;;;;;;;5009666;28;20579;-65
2023/04/17 10:44:45;;;;;;;34.90;23.63;;;;;;;;;;5009029;28;20333;-65
2023/04/17 10:47:13;;;;;;;29.98;22.45;;;;;;;;;;5025075;28;20294;-65
2023/04/17 10:49:47;;;;;;;28.83;20.88;;;;;;;;;;5031537;28;20231;-65
2023/04/17 10:52:36;;;;;;;26.33;19.25;;;;;;;;;;5028888;28;20295;-65
2023/04/17 10:55:05;;;;;;;27.50;20.20;;;;;;;;;;5032381;28;20224;-65
2023/04/17 10:57:49;;;;;;;28.10;21.25;;;;;;;;;;5033430;28;20298;-65
2023/04/17 11:00:15;;;;;;;26.27;20.27;;;;;;;;;;5032325;28;20697;-65
2023/04/17 11:02:44;;;;;;;29.23;21.00;;;;;;;;;;5033268;28;20207;-65
2023/04/17 11:05:09;;;;;;;23.83;18.13;;;;;;;;;;5032828;28;20220;-65
2023/04/17 11:07:35;;;;;;;25.45;19.38;;;;;;;;;;5014711;28;20299;-65
2023/04/17 11:10:04;;;;;;;28.50;17.73;;;;;;;;;;5015130;28;20239;-63
2023/04/17 11:12:30;;;;;;;26.45;19.45;;;;;;;;;;5032954;28;20211;-66
2023/04/17 11:15:00;;;;;;;27.90;19.35;;;;;;;;;;5032435;28;20211;-65
2023/04/17 11:17:25;;;;;;;26.98;19.52;;;;;;;;;;5032293;28;20214;-65
2023/04/17 11:19:52;;;;;;;28.73;19.25;;;;;;;;;;5032690;28;20220;-66
2023/04/17 11:22:18;;;;;;;28.75;19.50;;;;;;;;;;5032046;28;20204;-65
2023/04/17 11:24:43;;;;;;;24.60;18.10;;;;;;;;;;5032800;28;20562;-65
2023/04/17 11:27:08;;;;;;;26.80;19.33;;;;;;;;;;5031678;28;20222;-64
2023/04/17 11:29:33;;;;;;;24.13;17.70;;;;;;;;;;5032747;28;20220;-65
2023/04/17 11:32:00;;;;;;;26.13;19.00;;;;;;;;;;5032814;28;20212;-65
2023/04/17 11:34:25;;;;;;;25.60;18.45;;;;;;;;;;5031424;28;20281;-65
2023/04/17 11:36:51;;;;;;;22.65;17.45;;;;;;;;;;5032485;28;20686;-65
2023/04/17 11:39:17;;;;;;;24.05;18.83;;;;;;;;;;5032156;28;20618;-65
2023/04/17 11:41:42;;;;;;;25.95;19.27;;;;;;;;;;5031871;28;20479;-65
2023/04/17 11:44:08;;;;;;;26.17;19.15;;;;;;;;;;5014415;28;20243;-64
2023/04/17 11:46:33;;;;;;;28.58;19.70;;;;;;;;;;5032395;28;20211;-65
2023/04/17 11:48:59;;;;;;;23.02;18.50;;;;;;;;;;5031649;28;20256;-65
2023/04/17 11:51:25;;;;;;;22.50;17.20;;;;;;;;;;5013994;28;20580;-65
2023/04/17 11:53:51;;;;;;;27.30;19.25;;;;;;;;;;5022407;28;20228;-65
2023/04/17 11:56:17;;;;;;;20.58;17.02;;;;;;;;;;5031503;28;20220;-66
2023/04/17 11:58:44;;;;;;;25.70;19.00;;;;;;;;;;5032291;28;20361;-65
2023/04/17 12:01:09;;;;;;;22.83;18.15;;;;;;;;;;5031319;28;20269;-65
2023/04/17 12:03:35;;;;;;;27.33;16.80;;;;;;;;;;5031520;28;20286;-65
2023/04/17 12:06:01;;;;;;;25.30;17.23;;;;;;;;;;5032029;28;20224;-65
2023/04/17 12:08:26;;;;;;;23.17;18.23;;;;;;;;;;5031962;28;20354;-65
2023/04/17 12:10:51;;;;;;;21.80;16.50;;;;;;;;;;5030075;28;20314;-66
2023/04/17 12:13:17;;;;;;;24.73;16.13;;;;;;;;;;5031543;28;20271;-67
2023/04/17 12:15:42;;;;;;;21.00;15.40;;;;;;;;;;5031709;28;20640;-66
2023/04/17 12:18:08;;;;;;;20.33;15.18;;;;;;;;;;5030786;28;20224;-65
2023/04/17 12:20:34;;;;;;;24.20;15.18;;;;;;;;;;5031455;28;20199;-66
2023/04/17 12:23:00;;;;;;;20.42;14.45;;;;;;;;;;5031853;28;20219;-66
2023/04/17 12:25:25;;;;;;;18.73;14.18;;;;;;;;;;5030569;28;20216;-66
2023/04/17 12:27:50;;;;;;;21.75;14.23;;;;;;;;;;5031711;28;20218;-66
2023/04/17 12:30:15;;;;;;;17.73;13.85;;;;;;;;;;5030472;28;20228;-65
2023/04/17 12:32:44;;;;;;;19.92;14.95;;;;;;;;;;5031726;28;20265;-65
2023/04/17 12:35:10;;;;;;;20.98;15.40;;;;;;;;;;5030875;28;20212;-65
2023/04/17 12:37:35;;;;;;;20.10;14.93;;;;;;;;;;5030920;28;20306;-65
2023/04/17 12:40:00;;;;;;;19.13;14.20;;;;;;;;;;5031550;28;20455;-65
2023/04/17 12:42:25;;;;;;;18.65;13.98;;;;;;;;;;5031291;28;20299;-65
2023/04/17 12:44:51;;;;;;;17.90;13.07;;;;;;;;;;5030811;28;20258;-65
2023/04/17 12:47:16;;;;;;;18.50;13.10;;;;;;;;;;5031068;28;20216;-65
2023/04/17 12:49:41;;;;;;;18.42;12.82;;;;;;;;;;5030002;28;20694;-65
2023/04/17 12:52:06;;;;;;;14.98;12.13;;;;;;;;;;5029855;28;20203;-65
2023/04/17 12:54:32;;;;;;;16.98;12.32;;;;;;;;;;5033352;28;20273;-66
2023/04/17 12:56:57;;;;;;;16.92;12.57;;;;;;;;;;5031247;28;20219;-65
2023/04/17 12:59:22;;;;;;;17.27;10.82;;;;;;;;;;5029728;28;20253;-66
2023/04/17 13:01:47;;;;;;;18.02;12.18;;;;;;;;;;5031143;28;20207;-65
2023/04/17 13:04:13;;;;;;;18.13;11.98;;;;;;;;;;5030633;28;20249;-65
2023/04/17 13:06:38;;;;;;;20.33;13.07;;;;;;;;;;5029988;28;20211;-65
2023/04/17 13:09:03;;;;;;;16.10;11.77;;;;;;;;;;5030479;28;20679;-64
2023/04/17 13:11:28;;;;;;;16.92;11.23;;;;;;;;;;5030549;28;20303;-66
2023/04/17 13:13:54;;;;;;;16.67;11.80;;;;;;;;;;5029129;28;20263;-65
2023/04/17 13:16:19;;;;;;;17.98;12.63;;;;;;;;;;5030229;28;20255;-65
2023/04/17 13:18:44;;;;;;;16.27;12.10;;;;;;;;;;5030793;28;20243;-65
2023/04/17 13:21:10;;;;;;;18.23;12.32;;;;;;;;;;5029268;28;20706;-65
2023/04/17 13:23:35;;;;;;;15.93;11.45;;;;;;;;;;5028397;28;20246;-65
2023/04/17 13:26:00;;;;;;;17.42;12.65;;;;;;;;;;5029921;28;20695;-65
2023/04/17 13:28:25;;;;;;;18.88;12.15;;;;;;;;;;5028709;28;20221;-68
2023/04/17 13:30:51;;;;;;;17.73;12.88;;;;;;;;;;5030228;28;20551;-65
2023/04/17 13:33:17;;;;;;;20.25;12.80;;;;;;;;;;5030157;28;20211;-65
2023/04/17 13:35:42;;;;;;;18.17;13.88;;;;;;;;;;5029044;28;20583;-65
2023/04/17 13:38:07;;;;;;;17.23;13.07;;;;;;;;;;5029977;28;20216;-65
2023/04/17 13:40:33;;;;;;;17.25;12.63;;;;;;;;;;5011917;28;20258;-65
2023/04/17 13:42:59;;;;;;;16.85;12.27;;;;;;;;;;5030352;28;20602;-65
2023/04/17 13:45:24;;;;;;;14.30;11.25;;;;;;;;;;5029653;28;20273;-65
2023/04/17 13:47:50;;;;;;;15.05;11.35;;;;;;;;;;5029585;28;20212;-65
2023/04/17 13:50:15;;;;;;;16.65;11.52;;;;;;;;;;5029474;28;20227;-65
2023/04/17 13:52:40;;;;;;;14.65;11.30;;;;;;;;;;5030063;28;20303;-65
2023/04/17 13:55:10;;;;;;;16.50;11.27;;;;;;;;;;5028669;28;20691;-64
2023/04/17 13:57:35;;;;;;;15.27;11.07;;;;;;;;;;5017008;28;20699;-65
2023/04/17 14:00:01;;;;;;;16.95;11.98;;;;;;;;;;5006413;28;20234;-64
2023/04/17 14:02:26;;;;;;;14.23;11.15;;;;;;;;;;5008584;28;20556;-67
2023/04/17 14:04:51;;;;;;;16.83;11.45;;;;;;;;;;5000372;28;20216;-66
2023/04/17 14:07:17;;;;;;;17.85;12.10;;;;;;;;;;5015715;28;20287;-66